createdAt,value
2018-09-17T00:01:00.050Z,0
2018-09-17T00:01:45.425Z,0
2018-09-17T00:02:45.438Z,0
2018-09-17T00:03:45.198Z,0
2018-09-17T00:04:45.218Z,0
2018-09-17T00:05:45.247Z,0
2018-09-17T00:06:45.268Z,0
2018-09-17T00:07:59.943Z,0
2018-09-17T00:08:45.565Z,0
2018-09-17T00:09:45.324Z,0
2018-09-17T00:10:45.349Z,0
2018-09-17T00:11:45.376Z,0
2018-09-17T00:12:45.392Z,0
2018-09-17T00:13:45.677Z,0
2018-09-17T00:14:45.690Z,0
2018-09-17T00:15:45.216Z,0
2018-09-17T00:16:45.739Z,0
2018-09-17T00:18:00.159Z,0
2018-09-17T00:18:45.777Z,0
2018-09-17T00:19:45.802Z,0
2018-09-17T00:20:45.562Z,0
2018-09-17T00:21:45.848Z,0
2018-09-17T00:22:45.867Z,0
2018-09-17T00:24:00.549Z,0
2018-09-17T00:24:45.907Z,0
2018-09-17T00:25:45.927Z,0
2018-09-17T00:26:45.950Z,0
2018-09-17T00:28:00.644Z,0
2018-09-17T00:28:45.997Z,0
2018-09-17T00:31:45.797Z,0
2018-09-17T00:32:45.819Z,0
2018-09-17T00:34:00.759Z,0
2018-09-17T00:34:46.122Z,0
2018-09-17T00:35:46.142Z,0
2018-09-17T00:36:46.166Z,0
2018-09-17T00:37:45.927Z,0
2018-09-17T00:38:45.690Z,0
2018-09-17T00:40:00.891Z,0
2018-09-17T00:40:46.247Z,0
2018-09-17T00:41:46.016Z,0
2018-09-17T00:43:00.951Z,0
2018-09-17T00:43:46.311Z,0
2018-09-17T00:45:46.357Z,0
2018-09-17T00:46:46.376Z,0
2018-09-17T00:47:46.397Z,0
2018-09-17T00:48:46.159Z,0
2018-09-17T00:49:46.441Z,0
2018-09-17T00:50:46.202Z,0
2018-09-17T00:52:00.896Z,0
2018-09-17T00:52:45.989Z,0
2018-09-17T00:53:46.540Z,0
2018-09-17T00:54:46.387Z,0
2018-09-17T00:56:01.232Z,0
2018-09-17T00:56:46.332Z,0
2018-09-17T00:57:46.691Z,0
2018-09-17T00:58:46.635Z,0
2018-09-17T00:59:46.661Z,0
2018-09-17T01:00:46.412Z,0
2018-09-17T01:01:46.691Z,0
2018-09-17T01:02:46.718Z,0
2018-09-17T01:03:46.732Z,0
2018-09-17T01:05:01.419Z,0
2018-09-17T01:05:46.527Z,0
2018-09-17T01:06:46.542Z,0
2018-09-17T01:07:46.566Z,0
2018-09-17T01:08:46.842Z,0
2018-09-17T01:09:46.878Z,0
2018-09-17T01:11:01.545Z,0
2018-09-17T01:11:46.905Z,0
2018-09-17T01:12:46.669Z,0
2018-09-17T01:13:46.947Z,0
2018-09-17T01:15:01.685Z,0
2018-09-17T01:15:46.734Z,0
2018-09-17T01:16:47.011Z,0
2018-09-17T01:19:46.818Z,0
2018-09-17T01:20:47.099Z,0
2018-09-17T01:21:47.119Z,0
2018-09-17T01:22:47.141Z,0
2018-09-17T01:23:46.641Z,0
2018-09-17T01:24:46.940Z,0
2018-09-17T01:25:47.359Z,0
2018-09-17T01:27:47.242Z,0
2018-09-17T01:28:47.260Z,0
2018-09-17T01:29:47.288Z,0
2018-09-17T01:30:47.305Z,0
2018-09-17T01:31:46.810Z,0
2018-09-17T01:32:47.092Z,0
2018-09-17T01:33:46.857Z,0
2018-09-17T01:34:47.138Z,0
2018-09-17T01:36:02.069Z,0
2018-09-17T01:36:47.433Z,0
2018-09-17T01:37:47.457Z,0
2018-09-17T01:38:47.478Z,0
2018-09-17T01:39:47.495Z,0
2018-09-17T01:40:47.262Z,0
2018-09-17T01:41:47.537Z,0
2018-09-17T01:43:47.327Z,0
2018-09-17T01:44:47.341Z,0
2018-09-17T01:45:47.634Z,0
2018-09-17T01:47:02.042Z,0
2018-09-17T01:47:47.406Z,0
2018-09-17T01:48:47.682Z,0
2018-09-17T01:49:47.704Z,0
2018-09-17T01:50:47.465Z,0
2018-09-17T01:51:47.488Z,0
2018-09-17T01:52:47.505Z,0
2018-09-17T01:53:47.787Z,0
2018-09-17T01:54:47.552Z,0
2018-09-17T01:56:02.490Z,0
2018-09-17T01:56:47.852Z,0
2018-09-17T01:57:47.361Z,0
2018-09-17T01:59:02.553Z,0
2018-09-17T02:00:02.570Z,0
2018-09-17T02:01:47.699Z,0
2018-09-17T02:02:47.980Z,0
2018-09-17T02:03:47.736Z,0
2018-09-17T02:04:48.011Z,0
2018-09-17T02:05:47.792Z,0
2018-09-17T02:06:48.053Z,0
2018-09-17T02:07:48.075Z,0
2018-09-17T02:09:02.589Z,0
2018-09-17T02:10:48.139Z,0
2018-09-17T02:11:47.899Z,0
2018-09-17T02:12:48.176Z,0
2018-09-17T02:13:48.210Z,0
2018-09-17T02:15:02.881Z,0
2018-09-17T02:15:48.244Z,0
2018-09-17T02:17:02.921Z,0
2018-09-17T02:18:02.684Z,0
2018-09-17T02:18:48.043Z,0
2018-09-17T02:19:48.068Z,0
2018-09-17T02:20:48.092Z,0
2018-09-17T02:21:48.364Z,0
2018-09-17T02:23:03.045Z,0
2018-09-17T02:24:02.806Z,0
2018-09-17T02:24:48.434Z,0
2018-09-17T02:26:48.497Z,0
2018-09-17T02:27:48.232Z,0
2018-09-17T02:28:48.250Z,0
2018-09-17T02:29:48.277Z,0
2018-09-17T02:31:02.952Z,0
2018-09-17T02:32:03.351Z,0
2018-09-17T02:32:48.593Z,0
2018-09-17T02:33:48.359Z,0
2018-09-17T02:34:48.639Z,0
2018-09-17T02:35:48.663Z,0
2018-09-17T02:36:48.425Z,0
2018-09-17T02:37:48.183Z,0
2018-09-17T02:38:48.718Z,0
2018-09-17T02:39:48.734Z,0
2018-09-17T02:41:03.415Z,0
2018-09-17T02:41:48.783Z,0
2018-09-17T02:42:48.537Z,0
2018-09-17T02:43:48.822Z,0
2018-09-17T02:44:48.584Z,0
2018-09-17T02:46:03.519Z,0
2018-09-17T02:46:48.881Z,0
2018-09-17T02:48:03.302Z,0
2018-09-17T02:48:48.404Z,0
2018-09-17T02:49:48.956Z,0
2018-09-17T02:50:48.752Z,0
2018-09-17T02:51:48.463Z,0
2018-09-17T02:53:03.673Z,0
2018-09-17T02:53:49.469Z,0
2018-09-17T02:54:48.805Z,0
2018-09-17T02:56:48.847Z,0
2018-09-17T02:57:49.109Z,0
2018-09-17T02:58:48.607Z,0
2018-09-17T03:00:03.823Z,0
2018-09-17T03:00:49.170Z,0
2018-09-17T03:01:48.929Z,0
2018-09-17T03:02:48.691Z,0
2018-09-17T03:03:48.710Z,0
2018-09-17T03:04:48.729Z,0
2018-09-17T03:05:48.748Z,0
2018-09-17T03:06:49.288Z,0
2018-09-17T03:07:49.309Z,0
2018-09-17T03:08:49.324Z,0
2018-09-17T03:09:49.364Z,0
2018-09-17T03:10:49.418Z,0
2018-09-17T03:11:48.874Z,0
2018-09-17T03:12:49.409Z,0
2018-09-17T03:13:49.168Z,0
2018-09-17T03:14:48.931Z,0
2018-09-17T03:15:49.212Z,0
2018-09-17T03:16:49.228Z,0
2018-09-17T03:18:04.169Z,0
2018-09-17T03:19:04.188Z,0
2018-09-17T03:19:49.350Z,0
2018-09-17T03:21:49.594Z,0
2018-09-17T03:22:49.613Z,0
2018-09-17T03:23:49.636Z,0
2018-09-17T03:24:49.657Z,0
2018-09-17T03:25:49.769Z,0
2018-09-17T03:26:49.725Z,0
2018-09-17T03:27:49.709Z,0
2018-09-17T03:28:49.473Z,0
2018-09-17T03:31:04.237Z,0
2018-09-17T03:31:49.792Z,0
2018-09-17T03:34:19.153Z,0
2018-09-17T03:34:49.857Z,0
2018-09-17T03:35:49.883Z,0
2018-09-17T03:36:49.894Z,0
2018-09-17T03:37:49.661Z,0
2018-09-17T03:39:49.697Z,0
2018-09-17T03:41:49.994Z,0
2018-09-17T03:42:50.008Z,0
2018-09-17T03:44:04.699Z,0
2018-09-17T03:44:49.539Z,0
2018-09-17T03:45:50.080Z,0
2018-09-17T03:46:50.887Z,0
2018-09-17T03:47:49.857Z,0
2018-09-17T03:48:50.134Z,0
2018-09-17T03:50:04.651Z,0
2018-09-17T03:50:50.167Z,0
2018-09-17T03:51:49.933Z,0
2018-09-17T03:52:50.220Z,0
2018-09-17T03:53:50.228Z,0
2018-09-17T03:54:50.256Z,0
2018-09-17T03:55:50.012Z,0
2018-09-17T03:56:50.035Z,0
2018-09-17T03:57:50.315Z,0
2018-09-17T03:58:50.337Z,0
2018-09-17T03:59:50.098Z,0
2018-09-17T04:00:50.369Z,0
2018-09-17T04:01:50.401Z,0
2018-09-17T04:02:50.161Z,0
2018-09-17T04:03:50.172Z,0
2018-09-17T04:05:05.113Z,0
2018-09-17T04:06:05.201Z,4
2018-09-17T04:06:50.490Z,4
2018-09-17T04:07:50.250Z,4
2018-09-17T04:08:50.270Z,0
2018-09-17T04:09:50.310Z,4
2018-09-17T04:10:50.577Z,4
2018-09-17T04:11:50.338Z,8
2018-09-17T04:12:50.355Z,4
2018-09-17T04:13:50.631Z,8
2018-09-17T04:14:50.401Z,8
2018-09-17T04:15:50.674Z,8
2018-09-17T04:16:50.693Z,12
2018-09-17T04:17:50.711Z,16
2018-09-17T04:18:50.733Z,16
2018-09-17T04:19:50.749Z,20
2018-09-17T04:21:50.793Z,28
2018-09-17T04:22:50.811Z,32
2018-09-17T04:23:50.833Z,36
2018-09-17T04:24:50.604Z,44
2018-09-17T04:25:50.359Z,56
2018-09-17T04:26:50.888Z,64
2018-09-17T04:27:50.912Z,72
2018-09-17T04:28:50.937Z,84
2018-09-17T04:29:50.693Z,96
2018-09-17T04:32:50.751Z,148
2018-09-17T04:34:05.705Z,168
2018-09-17T04:34:50.793Z,184
2018-09-17T04:35:51.091Z,208
2018-09-17T04:36:51.092Z,232
2018-09-17T04:37:51.461Z,260
2018-09-17T04:38:51.139Z,284
2018-09-17T04:39:51.463Z,316
2018-09-17T04:41:05.827Z,356
2018-09-17T04:41:50.929Z,384
2018-09-17T04:43:05.866Z,424
2018-09-17T04:43:50.714Z,452
2018-09-17T04:44:51.254Z,496
2018-09-17T04:45:51.264Z,540
2018-09-17T04:46:51.031Z,588
2018-09-17T04:47:51.046Z,640
2018-09-17T04:48:51.320Z,696
2018-09-17T04:49:51.349Z,752
2018-09-17T04:50:51.369Z,804
2018-09-17T04:51:51.387Z,864
2018-09-17T04:53:05.801Z,936
2018-09-17T04:53:51.167Z,980
2018-09-17T04:54:51.446Z,1044
2018-09-17T04:55:51.463Z,1104
2018-09-17T04:57:06.141Z,1180
2018-09-17T04:57:51.505Z,1224
2018-09-17T04:58:51.530Z,1280
2018-09-17T04:59:51.538Z,1340
2018-09-17T05:00:51.566Z,1408
2018-09-17T05:01:51.576Z,1480
2018-09-17T05:02:51.338Z,1556
2018-09-17T05:04:06.284Z,1632
2018-09-17T05:04:51.380Z,1688
2018-09-17T05:05:51.659Z,1768
2018-09-17T05:07:06.346Z,1868
2018-09-17T05:07:51.698Z,1924
2018-09-17T05:09:06.379Z,2004
2018-09-17T05:09:51.734Z,2052
2018-09-17T05:10:51.506Z,2124
2018-09-17T05:12:51.937Z,2304
2018-09-17T05:14:51.840Z,2852
2018-09-17T05:16:06.513Z,3152
2018-09-17T05:16:51.872Z,2944
2018-09-17T05:17:51.889Z,2828
2018-09-17T05:18:51.651Z,2944
2018-09-17T05:19:51.934Z,3128
2018-09-17T05:20:52.257Z,3208
2018-09-17T05:21:51.980Z,3236
2018-09-17T05:22:51.991Z,3296
2018-09-17T05:23:52.007Z,3372
2018-09-17T05:25:06.432Z,3480
2018-09-17T05:26:52.476Z,3664
2018-09-17T05:28:06.500Z,3700
2018-09-17T05:29:52.130Z,3828
2018-09-17T05:30:52.164Z,3904
2018-09-17T05:32:52.193Z,4276
2018-09-17T05:34:06.870Z,5980
2018-09-17T05:34:51.986Z,5876
2018-09-17T05:36:06.906Z,4344
2018-09-17T05:36:52.265Z,4412
2018-09-17T05:37:52.319Z,5664
2018-09-17T05:38:52.306Z,5592
2018-09-17T05:39:52.328Z,4516
2018-09-17T05:41:06.748Z,4596
2018-09-17T05:41:52.372Z,4644
2018-09-17T05:42:52.385Z,4872
2018-09-17T05:44:07.068Z,4888
2018-09-17T05:44:52.442Z,5208
2018-09-17T05:45:52.458Z,5220
2018-09-17T05:46:52.469Z,5064
2018-09-17T05:48:07.149Z,5184
2018-09-17T05:48:52.258Z,5380
2018-09-17T05:49:52.529Z,6784
2018-09-17T05:50:52.555Z,11776
2018-09-17T05:51:52.569Z,11388
2018-09-17T05:52:52.590Z,25280
2018-09-17T05:53:52.965Z,34976
2018-09-17T05:54:52.628Z,42976
2018-09-17T05:56:07.309Z,45152
2018-09-17T05:56:52.683Z,43104
2018-09-17T05:58:07.353Z,41696
2018-09-17T05:58:52.718Z,41376
2018-09-17T05:59:52.617Z,44064
2018-09-17T06:01:07.433Z,44256
2018-09-17T06:01:52.787Z,45920
2018-09-17T06:02:52.809Z,50016
2018-09-17T06:03:52.834Z,50752
2018-09-17T06:04:52.857Z,53760
2018-09-17T06:05:52.920Z,55808
2018-09-17T06:06:53.037Z,55200
2018-09-17T06:08:07.690Z,54272
2018-09-17T06:08:52.960Z,55264
2018-09-17T06:09:53.039Z,55712
2018-09-17T06:10:52.752Z,56928
2018-09-17T06:11:53.403Z,56608
2018-09-17T06:14:07.742Z,58784
2018-09-17T06:14:53.107Z,57952
2018-09-17T06:15:53.140Z,60992
2018-09-17T06:16:53.172Z,58912
2018-09-17T06:17:52.934Z,59616
2018-09-17T06:18:53.311Z,58240
2018-09-17T06:19:53.239Z,59296
2018-09-17T06:21:07.929Z,61696
2018-09-17T06:21:53.301Z,63424
2018-09-17T06:22:53.330Z,63136
2018-09-17T06:23:53.355Z,59552
2018-09-17T06:24:53.391Z,62080
2018-09-17T06:25:53.409Z,58272
2018-09-17T06:26:52.933Z,52448
2018-09-17T06:28:08.176Z,51744
2018-09-17T06:28:53.362Z,51616
2018-09-17T06:29:53.558Z,51488
2018-09-17T06:30:53.318Z,54176
2018-09-17T06:32:08.252Z,61280
2018-09-17T06:32:53.616Z,64160
2018-09-17T06:33:53.399Z,67296
2018-09-17T06:35:53.455Z,69344
2018-09-17T06:36:53.490Z,67136
2018-09-17T06:37:53.778Z,63520
2018-09-17T06:38:53.280Z,61664
2018-09-17T06:39:53.569Z,65952
2018-09-17T06:40:53.621Z,66688
2018-09-17T06:41:53.633Z,65152
2018-09-17T06:43:08.588Z,63008
2018-09-17T06:44:08.618Z,64928
2018-09-17T06:44:54.173Z,67328
2018-09-17T06:45:53.782Z,67520
2018-09-17T06:47:53.820Z,67552
2018-09-17T06:48:53.857Z,65152
2018-09-17T06:49:54.142Z,63872
2018-09-17T06:50:53.913Z,67424
2018-09-17T06:52:08.869Z,65728
2018-09-17T06:52:53.740Z,64352
2018-09-17T06:53:54.361Z,65472
2018-09-17T06:54:54.307Z,67456
2018-09-17T06:55:54.350Z,66944
2018-09-17T06:56:54.468Z,66592
2018-09-17T06:57:54.142Z,65984
2018-09-17T06:58:54.434Z,65472
2018-09-17T07:00:09.126Z,64096
2018-09-17T07:00:54.499Z,61792
2018-09-17T07:02:08.935Z,63584
2018-09-17T07:03:54.596Z,68352
2018-09-17T07:06:54.709Z,67584
2018-09-17T07:07:54.722Z,68704
2018-09-17T07:09:09.165Z,69536
2018-09-17T07:09:54.536Z,68672
2018-09-17T07:10:54.830Z,66656
2018-09-17T07:11:54.601Z,65248
2018-09-17T07:12:54.985Z,65120
2018-09-17T07:13:54.663Z,65120
2018-09-17T07:14:54.953Z,66624
2018-09-17T07:16:09.707Z,67168
2018-09-17T07:16:54.779Z,67328
2018-09-17T07:17:55.118Z,64608
2018-09-17T07:18:55.093Z,65984
2018-09-17T07:20:55.158Z,68928
2018-09-17T07:21:54.938Z,69376
2018-09-17T07:23:09.896Z,69472
2018-09-17T07:23:54.999Z,69344
2018-09-17T07:24:55.031Z,67616
2018-09-17T07:25:55.056Z,70400
2018-09-17T07:26:55.351Z,73856
2018-09-17T07:27:55.128Z,71616
2018-09-17T07:28:55.168Z,68672
2018-09-17T07:31:09.890Z,69248
2018-09-17T07:31:55.514Z,70496
2018-09-17T07:33:55.622Z,67584
2018-09-17T07:35:10.021Z,68000
2018-09-17T07:35:55.411Z,70240
2018-09-17T07:36:55.688Z,68736
2018-09-17T07:38:10.379Z,68448
2018-09-17T07:38:55.266Z,68576
2018-09-17T07:40:10.446Z,67552
2018-09-17T07:40:55.700Z,65216
2018-09-17T07:41:55.852Z,63328
2018-09-17T07:42:55.624Z,59136
2018-09-17T07:43:55.912Z,59360
2018-09-17T07:44:55.728Z,57952
2018-09-17T07:45:55.725Z,56160
2018-09-17T07:46:56.018Z,56672
2018-09-17T07:47:56.045Z,59072
2018-09-17T07:48:56.078Z,57152
2018-09-17T07:50:10.778Z,55136
2018-09-17T07:50:56.144Z,52960
2018-09-17T07:51:55.659Z,49632
2018-09-17T07:52:56.422Z,51904
2018-09-17T07:53:56.347Z,51072
2018-09-17T07:54:56.290Z,56352
2018-09-17T07:56:10.977Z,52064
2018-09-17T07:57:55.864Z,58560
2018-09-17T07:58:56.295Z,56992
2018-09-17T07:59:56.191Z,55104
2018-09-17T08:00:56.466Z,54560
2018-09-17T08:01:56.243Z,52896
2018-09-17T08:03:10.935Z,48640
2018-09-17T08:04:11.226Z,50304
2018-09-17T08:05:56.626Z,47552
2018-09-17T08:06:56.450Z,44608
2018-09-17T08:07:56.695Z,41632
2018-09-17T08:08:56.728Z,37472
2018-09-17T08:10:11.419Z,40576
2018-09-17T08:11:11.449Z,47424
2018-09-17T08:11:56.661Z,47456
2018-09-17T08:12:56.334Z,46432
2018-09-17T08:14:56.915Z,43104
2018-09-17T08:15:56.995Z,42272
2018-09-17T08:16:56.750Z,38240
2018-09-17T08:17:57.013Z,37920
2018-09-17T08:19:11.189Z,41792
2018-09-17T08:19:57.198Z,44512
2018-09-17T08:20:57.108Z,44800
2018-09-17T08:21:56.882Z,39872
2018-09-17T08:23:56.941Z,41664
2018-09-17T08:25:11.900Z,38688
2018-09-17T08:26:57.299Z,39072
2018-09-17T08:27:57.070Z,40864
2018-09-17T08:29:57.387Z,42880
2018-09-17T08:30:57.418Z,39168
2018-09-17T08:31:57.194Z,41280
2018-09-17T08:32:57.483Z,36320
2018-09-17T08:33:57.525Z,34112
2018-09-17T08:35:26.874Z,31072
2018-09-17T08:35:57.327Z,32384
2018-09-17T08:36:57.093Z,33824
2018-09-17T08:38:12.306Z,32480
2018-09-17T08:38:57.675Z,32096
2018-09-17T08:39:57.445Z,32224
2018-09-17T08:40:57.743Z,33216
2018-09-17T08:41:57.506Z,29024
2018-09-17T08:43:12.670Z,28672
2018-09-17T08:43:57.580Z,27744
2018-09-17T08:45:12.526Z,27776
2018-09-17T08:45:57.897Z,27488
2018-09-17T08:46:57.408Z,27104
2018-09-17T08:48:12.622Z,23232
2018-09-17T08:48:57.991Z,21696
2018-09-17T08:49:58.113Z,21472
2018-09-17T08:51:12.714Z,22048
2018-09-17T08:51:58.122Z,20864
2018-09-17T08:52:58.561Z,21728
2018-09-17T08:53:57.882Z,21728
2018-09-17T08:54:58.177Z,22048
2018-09-17T08:55:58.209Z,21824
2018-09-17T08:56:57.720Z,21824
2018-09-17T08:57:58.269Z,21664
2018-09-17T08:58:57.781Z,20384
2018-09-17T09:00:12.989Z,20000
2018-09-17T09:00:58.353Z,19392
2018-09-17T09:02:12.533Z,18976
2018-09-17T09:02:58.420Z,17728
2018-09-17T09:03:58.324Z,17024
2018-09-17T09:06:13.175Z,17920
2018-09-17T09:06:58.537Z,16928
2018-09-17T09:08:13.240Z,18496
2018-09-17T09:08:58.611Z,18016
2018-09-17T09:09:58.635Z,17216
2018-09-17T09:10:58.405Z,16704
2018-09-17T09:11:58.691Z,17248
2018-09-17T09:13:13.393Z,16960
2018-09-17T09:13:58.502Z,17664
2018-09-17T09:14:58.782Z,18400
2018-09-17T09:15:58.815Z,18240
2018-09-17T09:16:58.591Z,18784
2018-09-17T09:17:58.875Z,19648
2018-09-17T09:18:58.645Z,19424
2018-09-17T09:19:58.945Z,19040
2018-09-17T09:20:58.963Z,18432
2018-09-17T09:21:59.009Z,17568
2018-09-17T09:22:58.512Z,16320
2018-09-17T09:23:59.060Z,15524
2018-09-17T09:25:13.491Z,14512
2018-09-17T09:26:59.145Z,13584
2018-09-17T09:27:59.175Z,15432
2018-09-17T09:28:58.688Z,15604
2018-09-17T09:29:58.975Z,15064
2018-09-17T09:30:59.567Z,13976
2018-09-17T09:31:59.298Z,14824
2018-09-17T09:32:59.339Z,15444
2018-09-17T09:33:59.372Z,16104
2018-09-17T09:34:58.866Z,16112
2018-09-17T09:35:59.414Z,15768
2018-09-17T09:37:14.110Z,15672
2018-09-17T09:38:14.021Z,16704
2018-09-17T09:38:59.502Z,17120
2018-09-17T09:40:14.196Z,18144
2018-09-17T09:41:14.223Z,17664
2018-09-17T09:41:59.602Z,17440
2018-09-17T09:42:59.620Z,17120
2018-09-17T09:43:59.651Z,17568
2018-09-17T09:45:14.351Z,17312
2018-09-17T09:45:59.517Z,16992
2018-09-17T09:47:14.413Z,17248
2018-09-17T09:47:59.774Z,17696
2018-09-17T09:48:59.796Z,17728
2018-09-17T09:49:59.830Z,17152
2018-09-17T09:50:59.856Z,16592
2018-09-17T09:51:59.634Z,16928
2018-09-17T09:52:59.921Z,17024
2018-09-17T09:54:14.611Z,16960
2018-09-17T09:54:59.725Z,15836
2018-09-17T09:56:00.014Z,17024
2018-09-17T09:56:59.779Z,16228
2018-09-17T09:59:00.108Z,16488
2018-09-17T10:00:00.176Z,16348
2018-09-17T10:00:59.919Z,15880
2018-09-17T10:02:00.212Z,15452
2018-09-17T10:03:00.234Z,15240
2018-09-17T10:04:14.656Z,14628
2018-09-17T10:05:00.277Z,14652
2018-09-17T10:06:00.058Z,14936
2018-09-17T10:07:00.086Z,15204
2018-09-17T10:08:00.367Z,15180
2018-09-17T10:08:59.887Z,14904
2018-09-17T10:10:15.090Z,15464
2018-09-17T10:11:00.460Z,15952
2018-09-17T10:12:00.492Z,15748
2018-09-17T10:13:00.525Z,15680
2018-09-17T10:14:00.566Z,15720
2018-09-17T10:16:00.351Z,15316
2018-09-17T10:17:00.383Z,15352
2018-09-17T10:18:00.413Z,14568
2018-09-17T10:19:00.701Z,14192
2018-09-17T10:20:00.738Z,15104
2018-09-17T10:21:00.910Z,15044
2018-09-17T10:22:00.793Z,15160
2018-09-17T10:23:00.827Z,14964
2018-09-17T10:24:00.848Z,14660
2018-09-17T10:25:00.368Z,14804
2018-09-17T10:26:15.315Z,14456
2018-09-17T10:27:01.038Z,14536
2018-09-17T10:28:00.980Z,14664
2018-09-17T10:29:15.663Z,14396
2018-09-17T10:30:00.724Z,14360
2018-09-17T10:31:00.805Z,13872
2018-09-17T10:32:00.837Z,13804
2018-09-17T10:33:01.120Z,13564
2018-09-17T10:34:01.146Z,13236
2018-09-17T10:35:01.176Z,13700
2018-09-17T10:36:00.954Z,13412
2018-09-17T10:37:00.981Z,13032
2018-09-17T10:38:01.018Z,12804
2018-09-17T10:39:01.298Z,12556
2018-09-17T10:40:01.330Z,12048
2018-09-17T10:41:16.016Z,12204
2018-09-17T10:42:01.382Z,12388
2018-09-17T10:43:16.075Z,12344
2018-09-17T10:44:01.443Z,12044
2018-09-17T10:45:15.874Z,11320
2018-09-17T10:46:01.506Z,10472
2018-09-17T10:47:01.628Z,10156
2018-09-17T10:48:01.570Z,10208
2018-09-17T10:49:16.248Z,10324
2018-09-17T10:50:01.613Z,10496
2018-09-17T10:51:01.640Z,10856
2018-09-17T10:52:01.673Z,10868
2018-09-17T10:53:01.706Z,10748
2018-09-17T10:54:01.729Z,10376
2018-09-17T10:56:01.273Z,9784
2018-09-17T10:57:01.817Z,9452
2018-09-17T10:58:01.861Z,9260
2018-09-17T11:00:16.564Z,8852
2018-09-17T11:01:01.937Z,8764
2018-09-17T11:02:01.963Z,8520
2018-09-17T11:04:16.692Z,8372
2018-09-17T11:05:02.050Z,8232
2018-09-17T11:06:01.819Z,8008
2018-09-17T11:07:02.112Z,7972
2018-09-17T11:08:01.883Z,7232
2018-09-17T11:09:16.614Z,7060
2018-09-17T11:10:02.189Z,6808
2018-09-17T11:11:01.967Z,6788
2018-09-17T11:12:02.253Z,6464
2018-09-17T11:13:16.935Z,6736
2018-09-17T11:14:16.964Z,6880
2018-09-17T11:15:02.336Z,6668
2018-09-17T11:16:17.020Z,6472
2018-09-17T11:17:02.485Z,6496
2018-09-17T11:18:02.417Z,6428
2018-09-17T11:19:02.450Z,6308
2018-09-17T11:20:02.526Z,5864
2018-09-17T11:21:02.247Z,5788
2018-09-17T11:22:02.010Z,5828
2018-09-17T11:23:02.296Z,5628
2018-09-17T11:25:17.285Z,5680
2018-09-17T11:26:02.384Z,5616
2018-09-17T11:27:02.668Z,5600
2018-09-17T11:28:02.694Z,5556
2018-09-17T11:30:17.414Z,5452
2018-09-17T11:31:02.521Z,5420
2018-09-17T11:32:02.549Z,5384
2018-09-17T11:33:02.836Z,5360
2018-09-17T11:34:02.858Z,5340
2018-09-17T11:36:02.926Z,5304
2018-09-17T11:37:02.436Z,5284
2018-09-17T11:38:02.973Z,5244
2018-09-17T11:39:02.742Z,5228
2018-09-17T11:40:03.033Z,5232
2018-09-17T11:41:03.104Z,5224
2018-09-17T11:42:02.825Z,5224
2018-09-17T11:43:03.109Z,5220
2018-09-17T11:44:02.881Z,5172
2018-09-17T11:45:17.567Z,5220
2018-09-17T11:46:03.202Z,5240
2018-09-17T11:47:03.033Z,5244
2018-09-17T11:48:03.253Z,5248
2018-09-17T11:49:03.024Z,5252
2018-09-17T11:50:03.301Z,5264
2018-09-17T11:51:03.332Z,5264
2018-09-17T11:52:03.106Z,5236
2018-09-17T11:53:03.136Z,5196
2018-09-17T11:54:03.524Z,5168
2018-09-17T11:55:03.449Z,5052
2018-09-17T11:56:17.881Z,5116
2018-09-17T11:57:02.980Z,5112
2018-09-17T11:58:03.570Z,5144
2018-09-17T11:59:03.552Z,5320
2018-09-17T12:00:03.323Z,5376
2018-09-17T12:02:03.815Z,5444
2018-09-17T12:03:03.675Z,5496
2018-09-17T12:05:03.525Z,5572
2018-09-17T12:06:18.171Z,5424
2018-09-17T12:07:03.531Z,5448
2018-09-17T12:08:03.939Z,5644
2018-09-17T12:09:03.843Z,5480
2018-09-17T12:10:03.863Z,5484
2018-09-17T12:11:03.891Z,5444
2018-09-17T12:12:03.756Z,5192
2018-09-17T12:13:03.691Z,5392
2018-09-17T12:14:03.964Z,5492
2018-09-17T12:15:03.735Z,5772
2018-09-17T12:16:18.681Z,6076
2018-09-17T12:17:04.047Z,6228
2018-09-17T12:18:03.823Z,5896
2018-09-17T12:19:03.841Z,5948
2018-09-17T12:20:04.130Z,6036
2018-09-17T12:21:04.156Z,6284
2018-09-17T12:22:04.182Z,6608
2018-09-17T12:24:04.160Z,7024
2018-09-17T12:25:18.928Z,6944
2018-09-17T12:26:04.298Z,7020
2018-09-17T12:27:03.815Z,7008
2018-09-17T12:28:03.843Z,7112
2018-09-17T12:29:04.122Z,7128
2018-09-17T12:30:04.411Z,7236
2018-09-17T12:31:04.177Z,7396
2018-09-17T12:32:03.946Z,7476
2018-09-17T12:33:04.228Z,7516
2018-09-17T12:34:19.395Z,7512
2018-09-17T12:35:04.547Z,7500
2018-09-17T12:36:04.565Z,7492
2018-09-17T12:37:04.657Z,7396
2018-09-17T12:38:04.633Z,7360
2018-09-17T12:39:04.660Z,7268
2018-09-17T12:40:04.680Z,7196
2018-09-17T12:41:19.522Z,6876
2018-09-17T12:42:04.732Z,7100
2018-09-17T12:43:04.504Z,7112
2018-09-17T12:44:04.337Z,6936
2018-09-17T12:45:04.833Z,6792
2018-09-17T12:46:19.628Z,6688
2018-09-17T12:47:04.354Z,6636
2018-09-17T12:48:19.560Z,6644
2018-09-17T12:49:19.588Z,6560
2018-09-17T12:50:04.708Z,6540
2018-09-17T12:51:04.504Z,6328
2018-09-17T12:52:19.413Z,6572
2018-09-17T12:53:04.784Z,6572
2018-09-17T12:54:04.564Z,6668
2018-09-17T12:55:05.101Z,6672
2018-09-17T12:56:04.861Z,6732
2018-09-17T12:57:04.631Z,6652
2018-09-17T12:58:05.205Z,6676
2018-09-17T12:59:05.201Z,6480
2018-09-17T13:00:04.976Z,6208
2018-09-17T13:01:05.006Z,6272
2018-09-17T13:02:05.029Z,6452
2018-09-17T13:03:05.309Z,6500
2018-09-17T13:04:20.007Z,6540
2018-09-17T13:05:20.030Z,6536
2018-09-17T13:06:04.879Z,6524
2018-09-17T13:07:20.082Z,6464
2018-09-17T13:08:05.192Z,6400
2018-09-17T13:09:19.879Z,6440
2018-09-17T13:10:20.171Z,6464
2018-09-17T13:11:05.538Z,6312
2018-09-17T13:12:05.298Z,6692
2018-09-17T13:13:05.331Z,6756
2018-09-17T13:14:20.274Z,6732
2018-09-17T13:15:05.469Z,6728
2018-09-17T13:16:05.670Z,6884
2018-09-17T13:17:05.707Z,6840
2018-09-17T13:18:05.467Z,6880
2018-09-17T13:19:05.237Z,6884
2018-09-17T13:20:20.442Z,6824
2018-09-17T13:21:05.807Z,6856
2018-09-17T13:24:20.549Z,7040
2018-09-17T13:25:06.534Z,7048
2018-09-17T13:26:05.943Z,7084
2018-09-17T13:27:05.719Z,7156
2018-09-17T13:28:06.006Z,7232
2018-09-17T13:29:20.713Z,7280
2018-09-17T13:30:05.795Z,7360
2018-09-17T13:31:06.078Z,7368
2018-09-17T13:32:06.531Z,7516
2018-09-17T13:33:05.967Z,7508
2018-09-17T13:34:20.573Z,7584
2018-09-17T13:35:05.939Z,7656
2018-09-17T13:36:20.883Z,7840
2018-09-17T13:37:06.041Z,7992
2018-09-17T13:38:06.273Z,8132
2018-09-17T13:39:06.406Z,8308
2018-09-17T13:40:06.075Z,8388
2018-09-17T13:41:06.096Z,8476
2018-09-17T13:42:06.382Z,8660
2018-09-17T13:43:06.417Z,8828
2018-09-17T13:44:06.571Z,8944
2018-09-17T13:45:06.563Z,8972
2018-09-17T13:46:06.294Z,8916
2018-09-17T13:47:06.599Z,8852
2018-09-17T13:48:06.700Z,8688
2018-09-17T13:49:06.349Z,8368
2018-09-17T13:50:06.106Z,7900
2018-09-17T13:51:21.355Z,7244
2018-09-17T13:52:06.695Z,6888
2018-09-17T13:53:06.925Z,6396
2018-09-17T13:54:06.515Z,6088
2018-09-17T13:55:05.970Z,5960
2018-09-17T13:56:06.811Z,5864
2018-09-17T13:57:06.318Z,5824
2018-09-17T13:58:06.848Z,5772
2018-09-17T13:59:06.930Z,5760
2018-09-17T14:01:06.730Z,5760
2018-09-17T14:02:06.704Z,5916
2018-09-17T14:03:06.738Z,6016
2018-09-17T14:04:07.131Z,6180
2018-09-17T14:05:07.065Z,6184
2018-09-17T14:06:21.485Z,6276
2018-09-17T14:07:21.816Z,6252
2018-09-17T14:08:06.851Z,6416
2018-09-17T14:09:07.214Z,6844
2018-09-17T14:11:07.007Z,7492
2018-09-17T14:12:07.226Z,7620
2018-09-17T14:14:07.307Z,7720
2018-09-17T14:15:07.320Z,7636
2018-09-17T14:16:07.352Z,7512
2018-09-17T14:17:21.767Z,7464
2018-09-17T14:18:07.398Z,7532
2018-09-17T14:19:07.421Z,7600
2018-09-17T14:20:07.180Z,7276
2018-09-17T14:21:06.944Z,7096
2018-09-17T14:22:07.251Z,6832
2018-09-17T14:23:22.210Z,6640
2018-09-17T14:24:07.570Z,6692
2018-09-17T14:25:07.609Z,6952
2018-09-17T14:26:08.008Z,6992
2018-09-17T14:27:07.737Z,6992
2018-09-17T14:28:07.167Z,6896
2018-09-17T14:29:07.463Z,6884
2018-09-17T14:30:07.456Z,6788
2018-09-17T14:31:07.317Z,6612
2018-09-17T14:32:07.268Z,6372